sensor_id;sensor_type;location;lat;lon;timestamp;P1;durP1;ratioP1;P2;durP2;ratioP2
7929;SDS011;4010;42.698;23.124;2023-09-19T00:00:30;13.93;;;12.27;;
7929;SDS011;4010;42.698;23.124;2023-09-19T00:02:58;14.30;;;12.80;;
7929;SDS011;4010;42.698;23.124;2023-09-19T00:05:26;14.87;;;13.37;;
7929;SDS011;4010;42.698;23.124;2023-09-19T00:07:54;14.87;;;13.43;;
7929;SDS011;4010;42.698;23.124;2023-09-19T00:10:23;14.83;;;13.33;;
7929;SDS011;4010;42.698;23.124;2023-09-19T00:12:52;14.97;;;12.40;;
7929;SDS011;4010;42.698;23.124;2023-09-19T00:15:20;14.20;;;12.80;;
7929;SDS011;4010;42.698;23.124;2023-09-19T00:17:47;14.30;;;12.90;;
7929;SDS011;4010;42.698;23.124;2023-09-19T00:20:17;15.43;;;12.70;;
7929;SDS011;4010;42.698;23.124;2023-09-19T00:22:48;12.67;;;11.37;;
7929;SDS011;4010;42.698;23.124;2023-09-19T00:25:15;15.20;;;12.93;;
7929;SDS011;4010;42.698;23.124;2023-09-19T00:27:42;13.13;;;11.73;;
7929;SDS011;4010;42.698;23.124;2023-09-19T00:30:11;13.63;;;12.33;;
7929;SDS011;4010;42.698;23.124;2023-09-19T00:32:44;13.10;;;11.10;;
7929;SDS011;4010;42.698;23.124;2023-09-19T00:35:12;13.53;;;12.13;;
7929;SDS011;4010;42.698;23.124;2023-09-19T00:37:40;12.87;;;11.53;;
7929;SDS011;4010;42.698;23.124;2023-09-19T00:40:09;12.73;;;11.43;;
7929;SDS011;4010;42.698;23.124;2023-09-19T00:42:37;12.43;;;11.23;;
7929;SDS011;4010;42.698;23.124;2023-09-19T00:45:05;13.53;;;11.50;;
7929;SDS011;4010;42.698;23.124;2023-09-19T00:47:34;14.27;;;11.67;;
7929;SDS011;4010;42.698;23.124;2023-09-19T00:50:02;14.73;;;11.37;;
7929;SDS011;4010;42.698;23.124;2023-09-19T00:52:32;11.83;;;10.63;;
7929;SDS011;4010;42.698;23.124;2023-09-19T00:55:01;14.60;;;11.27;;
7929;SDS011;4010;42.698;23.124;2023-09-19T00:57:30;13.23;;;11.90;;
7929;SDS011;4010;42.698;23.124;2023-09-19T00:59:58;13.33;;;11.27;;
7929;SDS011;4010;42.698;23.124;2023-09-19T01:02:30;16.10;;;11.80;;
7929;SDS011;4010;42.698;23.124;2023-09-19T01:04:57;13.73;;;12.27;;
7929;SDS011;4010;42.698;23.124;2023-09-19T01:07:24;13.10;;;11.80;;
7929;SDS011;4010;42.698;23.124;2023-09-19T01:09:51;12.90;;;11.70;;
7929;SDS011;4010;42.698;23.124;2023-09-19T01:12:21;12.87;;;11.53;;
7929;SDS011;4010;42.698;23.124;2023-09-19T01:14:55;14.03;;;11.83;;
7929;SDS011;4010;42.698;23.124;2023-09-19T01:17:32;13.03;;;11.60;;
7929;SDS011;4010;42.698;23.124;2023-09-19T01:20:17;12.90;;;11.57;;
7929;SDS011;4010;42.698;23.124;2023-09-19T01:22:56;12.90;;;11.60;;
7929;SDS011;4010;42.698;23.124;2023-09-19T01:28:34;13.50;;;12.10;;
7929;SDS011;4010;42.698;23.124;2023-09-19T01:31:13;12.93;;;11.10;;
7929;SDS011;4010;42.698;23.124;2023-09-19T01:33:56;12.23;;;10.93;;
7929;SDS011;4010;42.698;23.124;2023-09-19T01:36:29;14.60;;;13.10;;
7929;SDS011;4010;42.698;23.124;2023-09-19T01:39:00;14.20;;;11.27;;
7929;SDS011;4010;42.698;23.124;2023-09-19T01:41:41;15.43;;;10.97;;
7929;SDS011;4010;42.698;23.124;2023-09-19T01:44:17;13.20;;;10.90;;
7929;SDS011;4010;42.698;23.124;2023-09-19T01:46:52;12.17;;;10.93;;
7929;SDS011;4010;42.698;23.124;2023-09-19T01:49:28;16.03;;;11.57;;
7929;SDS011;4010;42.698;23.124;2023-09-19T01:52:05;13.67;;;11.10;;
7929;SDS011;4010;42.698;23.124;2023-09-19T01:54:40;12.97;;;11.17;;
7929;SDS011;4010;42.698;23.124;2023-09-19T01:57:14;11.83;;;10.63;;
7929;SDS011;4010;42.698;23.124;2023-09-19T01:59:45;13.30;;;11.00;;
7929;SDS011;4010;42.698;23.124;2023-09-19T02:02:19;14.70;;;10.73;;
7929;SDS011;4010;42.698;23.124;2023-09-19T02:04:48;13.33;;;12.03;;
7929;SDS011;4010;42.698;23.124;2023-09-19T02:07:15;14.47;;;12.10;;
7929;SDS011;4010;42.698;23.124;2023-09-19T02:09:42;12.57;;;11.07;;
7929;SDS011;4010;42.698;23.124;2023-09-19T02:12:09;12.90;;;11.60;;
7929;SDS011;4010;42.698;23.124;2023-09-19T02:14:36;13.67;;;12.27;;
7929;SDS011;4010;42.698;23.124;2023-09-19T02:17:03;14.77;;;11.80;;
7929;SDS011;4010;42.698;23.124;2023-09-19T02:19:37;12.43;;;10.93;;
7929;SDS011;4010;42.698;23.124;2023-09-19T02:22:06;12.90;;;11.50;;
7929;SDS011;4010;42.698;23.124;2023-09-19T02:24:35;12.50;;;10.60;;
7929;SDS011;4010;42.698;23.124;2023-09-19T02:27:02;12.10;;;10.90;;
7929;SDS011;4010;42.698;23.124;2023-09-19T02:29:31;11.80;;;10.60;;
7929;SDS011;4010;42.698;23.124;2023-09-19T02:31:59;12.33;;;11.13;;
7929;SDS011;4010;42.698;23.124;2023-09-19T02:34:27;12.87;;;11.20;;
7929;SDS011;4010;42.698;23.124;2023-09-19T02:36:55;12.53;;;10.90;;
7929;SDS011;4010;42.698;23.124;2023-09-19T02:39:22;11.80;;;10.60;;
7929;SDS011;4010;42.698;23.124;2023-09-19T02:41:49;11.47;;;10.23;;
7929;SDS011;4010;42.698;23.124;2023-09-19T02:44:16;11.93;;;9.50;;
7929;SDS011;4010;42.698;23.124;2023-09-19T02:46:45;11.47;;;10.27;;
7929;SDS011;4010;42.698;23.124;2023-09-19T02:49:12;11.67;;;10.47;;
7929;SDS011;4010;42.698;23.124;2023-09-19T02:51:38;11.87;;;10.27;;
7929;SDS011;4010;42.698;23.124;2023-09-19T02:54:07;11.87;;;10.33;;
7929;SDS011;4010;42.698;23.124;2023-09-19T02:56:34;11.50;;;9.90;;
7929;SDS011;4010;42.698;23.124;2023-09-19T02:59:01;12.00;;;9.83;;
7929;SDS011;4010;42.698;23.124;2023-09-19T03:01:28;11.37;;;10.27;;
7929;SDS011;4010;42.698;23.124;2023-09-19T03:03:54;10.90;;;9.83;;
7929;SDS011;4010;42.698;23.124;2023-09-19T03:06:21;12.10;;;10.70;;
7929;SDS011;4010;42.698;23.124;2023-09-19T03:08:49;11.50;;;9.90;;
7929;SDS011;4010;42.698;23.124;2023-09-19T03:11:18;10.70;;;9.47;;
7929;SDS011;4010;42.698;23.124;2023-09-19T03:13:50;13.00;;;9.73;;
7929;SDS011;4010;42.698;23.124;2023-09-19T03:16:17;11.33;;;9.73;;
7929;SDS011;4010;42.698;23.124;2023-09-19T03:18:47;11.80;;;9.80;;
7929;SDS011;4010;42.698;23.124;2023-09-19T03:21:14;11.10;;;9.27;;
7929;SDS011;4010;42.698;23.124;2023-09-19T03:23:42;11.00;;;9.80;;
7929;SDS011;4010;42.698;23.124;2023-09-19T03:26:10;18.38;;;16.45;;
7929;SDS011;4010;42.698;23.124;2023-09-19T03:28:39;14.03;;;12.60;;
7929;SDS011;4010;42.698;23.124;2023-09-19T03:31:06;14.83;;;11.10;;
7929;SDS011;4010;42.698;23.124;2023-09-19T03:33:33;14.07;;;11.50;;
7929;SDS011;4010;42.698;23.124;2023-09-19T03:36:00;19.23;;;12.50;;
7929;SDS011;4010;42.698;23.124;2023-09-19T03:38:29;13.20;;;10.90;;
7929;SDS011;4010;42.698;23.124;2023-09-19T03:40:56;13.27;;;11.50;;
7929;SDS011;4010;42.698;23.124;2023-09-19T03:43:23;14.40;;;10.87;;
7929;SDS011;4010;42.698;23.124;2023-09-19T03:45:51;10.87;;;9.77;;
7929;SDS011;4010;42.698;23.124;2023-09-19T03:48:19;11.73;;;10.50;;
7929;SDS011;4010;42.698;23.124;2023-09-19T03:50:46;11.93;;;9.60;;
7929;SDS011;4010;42.698;23.124;2023-09-19T03:53:13;13.60;;;11.10;;
7929;SDS011;4010;42.698;23.124;2023-09-19T03:55:40;12.60;;;10.40;;
7929;SDS011;4010;42.698;23.124;2023-09-19T03:58:06;13.53;;;10.90;;
7929;SDS011;4010;42.698;23.124;2023-09-19T04:00:33;13.03;;;9.57;;
7929;SDS011;4010;42.698;23.124;2023-09-19T04:03:01;13.07;;;11.30;;
7929;SDS011;4010;42.698;23.124;2023-09-19T04:05:31;12.07;;;10.73;;
7929;SDS011;4010;42.698;23.124;2023-09-19T04:07:58;11.50;;;10.30;;
7929;SDS011;4010;42.698;23.124;2023-09-19T04:10:25;10.87;;;9.77;;
7929;SDS011;4010;42.698;23.124;2023-09-19T04:12:51;11.53;;;10.33;;
7929;SDS011;4010;42.698;23.124;2023-09-19T04:15:19;13.17;;;11.13;;
7929;SDS011;4010;42.698;23.124;2023-09-19T04:17:47;12.90;;;10.10;;
7929;SDS011;4010;42.698;23.124;2023-09-19T04:20:15;12.10;;;10.30;;
7929;SDS011;4010;42.698;23.124;2023-09-19T04:22:43;11.27;;;10.17;;
7929;SDS011;4010;42.698;23.124;2023-09-19T04:25:10;13.00;;;10.70;;
7929;SDS011;4010;42.698;23.124;2023-09-19T04:27:37;11.50;;;9.93;;
7929;SDS011;4010;42.698;23.124;2023-09-19T04:30:05;11.23;;;10.13;;
7929;SDS011;4010;42.698;23.124;2023-09-19T04:32:35;12.53;;;10.37;;
7929;SDS011;4010;42.698;23.124;2023-09-19T04:35:04;11.87;;;9.90;;
7929;SDS011;4010;42.698;23.124;2023-09-19T04:37:34;11.17;;;10.17;;
7929;SDS011;4010;42.698;23.124;2023-09-19T04:40:03;10.33;;;9.30;;
7929;SDS011;4010;42.698;23.124;2023-09-19T04:42:31;10.77;;;9.57;;
7929;SDS011;4010;42.698;23.124;2023-09-19T04:44:58;10.97;;;9.87;;
7929;SDS011;4010;42.698;23.124;2023-09-19T04:47:24;12.40;;;10.40;;
7929;SDS011;4010;42.698;23.124;2023-09-19T04:49:51;10.93;;;9.80;;
7929;SDS011;4010;42.698;23.124;2023-09-19T04:52:18;10.67;;;9.77;;
7929;SDS011;4010;42.698;23.124;2023-09-19T04:54:46;8.93;;;8.13;;
7929;SDS011;4010;42.698;23.124;2023-09-19T04:57:13;7.77;;;7.07;;
7929;SDS011;4010;42.698;23.124;2023-09-19T04:59:40;7.57;;;6.80;;
7929;SDS011;4010;42.698;23.124;2023-09-19T05:02:06;7.43;;;6.10;;
7929;SDS011;4010;42.698;23.124;2023-09-19T05:04:34;9.00;;;6.30;;
7929;SDS011;4010;42.698;23.124;2023-09-19T05:07:01;7.67;;;6.00;;
7929;SDS011;4010;42.698;23.124;2023-09-19T05:09:29;7.93;;;5.60;;
7929;SDS011;4010;42.698;23.124;2023-09-19T05:11:56;6.20;;;5.60;;
7929;SDS011;4010;42.698;23.124;2023-09-19T05:14:23;8.33;;;5.80;;
7929;SDS011;4010;42.698;23.124;2023-09-19T05:16:50;6.87;;;6.27;;
7929;SDS011;4010;42.698;23.124;2023-09-19T05:19:16;6.90;;;6.30;;
7929;SDS011;4010;42.698;23.124;2023-09-19T05:21:43;6.93;;;6.23;;
7929;SDS011;4010;42.698;23.124;2023-09-19T05:24:10;7.17;;;6.57;;
7929;SDS011;4010;42.698;23.124;2023-09-19T05:26:37;8.47;;;7.53;;
7929;SDS011;4010;42.698;23.124;2023-09-19T05:29:06;9.50;;;8.23;;
7929;SDS011;4010;42.698;23.124;2023-09-19T05:31:33;10.80;;;8.37;;
7929;SDS011;4010;42.698;23.124;2023-09-19T05:34:01;9.80;;;8.03;;
7929;SDS011;4010;42.698;23.124;2023-09-19T05:36:28;10.43;;;8.47;;
7929;SDS011;4010;42.698;23.124;2023-09-19T05:38:55;9.10;;;8.30;;
7929;SDS011;4010;42.698;23.124;2023-09-19T05:41:22;12.67;;;8.40;;
7929;SDS011;4010;42.698;23.124;2023-09-19T05:43:49;8.47;;;7.67;;
7929;SDS011;4010;42.698;23.124;2023-09-19T05:46:17;9.73;;;7.60;;
7929;SDS011;4010;42.698;23.124;2023-09-19T05:48:44;13.07;;;7.43;;
7929;SDS011;4010;42.698;23.124;2023-09-19T05:51:12;7.40;;;6.80;;
7929;SDS011;4010;42.698;23.124;2023-09-19T05:53:39;8.23;;;6.73;;
7929;SDS011;4010;42.698;23.124;2023-09-19T05:56:08;8.43;;;7.47;;
7929;SDS011;4010;42.698;23.124;2023-09-19T05:58:36;8.82;;;7.97;;
7929;SDS011;4010;42.698;23.124;2023-09-19T06:01:03;8.20;;;7.40;;
7929;SDS011;4010;42.698;23.124;2023-09-19T06:03:33;8.57;;;7.67;;
7929;SDS011;4010;42.698;23.124;2023-09-19T06:06:00;10.37;;;7.57;;
7929;SDS011;4010;42.698;23.124;2023-09-19T06:08:27;9.13;;;7.37;;
7929;SDS011;4010;42.698;23.124;2023-09-19T06:10:56;7.87;;;7.17;;
7929;SDS011;4010;42.698;23.124;2023-09-19T06:13:22;9.17;;;6.10;;
7929;SDS011;4010;42.698;23.124;2023-09-19T06:15:51;7.40;;;6.80;;
7929;SDS011;4010;42.698;23.124;2023-09-19T06:18:19;8.00;;;7.30;;
7929;SDS011;4010;42.698;23.124;2023-09-19T06:20:47;7.67;;;7.03;;
7929;SDS011;4010;42.698;23.124;2023-09-19T06:23:16;7.60;;;6.80;;
7929;SDS011;4010;42.698;23.124;2023-09-19T06:25:43;7.20;;;6.50;;
7929;SDS011;4010;42.698;23.124;2023-09-19T06:28:09;8.23;;;7.03;;
7929;SDS011;4010;42.698;23.124;2023-09-19T06:30:37;7.30;;;6.60;;
7929;SDS011;4010;42.698;23.124;2023-09-19T06:33:06;6.83;;;6.13;;
7929;SDS011;4010;42.698;23.124;2023-09-19T06:35:33;8.20;;;7.33;;
7929;SDS011;4010;42.698;23.124;2023-09-19T06:38:03;10.50;;;7.20;;
7929;SDS011;4010;42.698;23.124;2023-09-19T06:40:30;8.43;;;7.40;;
7929;SDS011;4010;42.698;23.124;2023-09-19T06:42:57;8.77;;;7.27;;
7929;SDS011;4010;42.698;23.124;2023-09-19T06:45:27;7.83;;;6.70;;
7929;SDS011;4010;42.698;23.124;2023-09-19T06:47:54;8.20;;;7.00;;
7929;SDS011;4010;42.698;23.124;2023-09-19T06:50:22;8.13;;;6.70;;
7929;SDS011;4010;42.698;23.124;2023-09-19T06:52:50;11.90;;;7.03;;
7929;SDS011;4010;42.698;23.124;2023-09-19T06:55:19;7.33;;;6.37;;
7929;SDS011;4010;42.698;23.124;2023-09-19T06:57:50;7.17;;;6.57;;
7929;SDS011;4010;42.698;23.124;2023-09-19T07:00:17;9.53;;;6.67;;
7929;SDS011;4010;42.698;23.124;2023-09-19T07:02:54;10.00;;;6.73;;
7929;SDS011;4010;42.698;23.124;2023-09-19T07:05:21;7.40;;;6.70;;
7929;SDS011;4010;42.698;23.124;2023-09-19T07:07:48;9.80;;;6.27;;
7929;SDS011;4010;42.698;23.124;2023-09-19T07:10:14;8.33;;;6.83;;
7929;SDS011;4010;42.698;23.124;2023-09-19T07:12:42;11.13;;;7.73;;
7929;SDS011;4010;42.698;23.124;2023-09-19T07:15:09;8.20;;;6.90;;
7929;SDS011;4010;42.698;23.124;2023-09-19T07:17:36;8.10;;;7.07;;
7929;SDS011;4010;42.698;23.124;2023-09-19T07:20:03;8.43;;;7.00;;
7929;SDS011;4010;42.698;23.124;2023-09-19T07:22:33;9.07;;;7.27;;
7929;SDS011;4010;42.698;23.124;2023-09-19T07:25:01;7.87;;;7.07;;
7929;SDS011;4010;42.698;23.124;2023-09-19T07:27:28;8.50;;;7.60;;
7929;SDS011;4010;42.698;23.124;2023-09-19T07:29:56;9.93;;;7.30;;
7929;SDS011;4010;42.698;23.124;2023-09-19T07:32:24;11.30;;;7.40;;
7929;SDS011;4010;42.698;23.124;2023-09-19T07:34:50;8.73;;;6.80;;
7929;SDS011;4010;42.698;23.124;2023-09-19T07:37:18;8.07;;;7.30;;
7929;SDS011;4010;42.698;23.124;2023-09-19T07:39:44;8.17;;;7.47;;
7929;SDS011;4010;42.698;23.124;2023-09-19T07:42:11;11.70;;;8.03;;
7929;SDS011;4010;42.698;23.124;2023-09-19T07:44:42;8.00;;;7.20;;
7929;SDS011;4010;42.698;23.124;2023-09-19T07:47:13;7.77;;;6.97;;
7929;SDS011;4010;42.698;23.124;2023-09-19T07:49:40;9.13;;;7.27;;
7929;SDS011;4010;42.698;23.124;2023-09-19T07:52:07;9.53;;;6.93;;
7929;SDS011;4010;42.698;23.124;2023-09-19T07:54:34;10.33;;;6.93;;
7929;SDS011;4010;42.698;23.124;2023-09-19T07:57:01;8.50;;;6.53;;
7929;SDS011;4010;42.698;23.124;2023-09-19T07:59:28;7.50;;;6.70;;
7929;SDS011;4010;42.698;23.124;2023-09-19T08:01:54;8.47;;;7.00;;
7929;SDS011;4010;42.698;23.124;2023-09-19T08:04:22;9.03;;;6.77;;
7929;SDS011;4010;42.698;23.124;2023-09-19T08:06:50;8.57;;;6.90;;
7929;SDS011;4010;42.698;23.124;2023-09-19T08:09:18;9.17;;;7.07;;
7929;SDS011;4010;42.698;23.124;2023-09-19T08:11:46;7.87;;;7.07;;
7929;SDS011;4010;42.698;23.124;2023-09-19T08:14:12;8.77;;;6.63;;
7929;SDS011;4010;42.698;23.124;2023-09-19T08:16:40;7.73;;;6.60;;
7929;SDS011;4010;42.698;23.124;2023-09-19T08:19:08;11.20;;;7.13;;
7929;SDS011;4010;42.698;23.124;2023-09-19T08:21:37;8.90;;;6.43;;
7929;SDS011;4010;42.698;23.124;2023-09-19T08:24:04;9.37;;;6.97;;
7929;SDS011;4010;42.698;23.124;2023-09-19T08:26:31;8.60;;;7.70;;
7929;SDS011;4010;42.698;23.124;2023-09-19T08:28:58;9.83;;;8.73;;
7929;SDS011;4010;42.698;23.124;2023-09-19T08:31:29;10.03;;;7.97;;
7929;SDS011;4010;42.698;23.124;2023-09-19T08:33:56;8.47;;;7.20;;
7929;SDS011;4010;42.698;23.124;2023-09-19T08:36:23;9.30;;;8.30;;
7929;SDS011;4010;42.698;23.124;2023-09-19T08:38:51;10.73;;;8.23;;
7929;SDS011;4010;42.698;23.124;2023-09-19T08:41:17;8.23;;;7.43;;
7929;SDS011;4010;42.698;23.124;2023-09-19T08:43:44;12.03;;;8.27;;
7929;SDS011;4010;42.698;23.124;2023-09-19T08:46:14;12.90;;;8.40;;
7929;SDS011;4010;42.698;23.124;2023-09-19T08:48:44;9.43;;;7.50;;
7929;SDS011;4010;42.698;23.124;2023-09-19T08:51:16;8.60;;;7.60;;
7929;SDS011;4010;42.698;23.124;2023-09-19T08:53:51;10.47;;;8.33;;
7929;SDS011;4010;42.698;23.124;2023-09-19T08:56:34;16.40;;;8.30;;
7929;SDS011;4010;42.698;23.124;2023-09-19T08:59:04;9.83;;;8.50;;
7929;SDS011;4010;42.698;23.124;2023-09-19T09:01:33;9.67;;;7.73;;
7929;SDS011;4010;42.698;23.124;2023-09-19T09:04:01;9.37;;;8.43;;
7929;SDS011;4010;42.698;23.124;2023-09-19T09:06:28;9.33;;;7.97;;
7929;SDS011;4010;42.698;23.124;2023-09-19T09:08:59;13.40;;;7.80;;
7929;SDS011;4010;42.698;23.124;2023-09-19T09:11:26;9.07;;;8.20;;
7929;SDS011;4010;42.698;23.124;2023-09-19T09:13:53;12.83;;;7.50;;
7929;SDS011;4010;42.698;23.124;2023-09-19T09:16:19;13.43;;;8.17;;
7929;SDS011;4010;42.698;23.124;2023-09-19T09:18:46;11.93;;;8.13;;
7929;SDS011;4010;42.698;23.124;2023-09-19T09:21:17;9.03;;;8.03;;
7929;SDS011;4010;42.698;23.124;2023-09-19T09:23:46;9.73;;;8.73;;
7929;SDS011;4010;42.698;23.124;2023-09-19T09:26:15;10.27;;;8.30;;
7929;SDS011;4010;42.698;23.124;2023-09-19T09:28:44;8.50;;;7.03;;
7929;SDS011;4010;42.698;23.124;2023-09-19T09:31:21;10.70;;;7.90;;
7929;SDS011;4010;42.698;23.124;2023-09-19T09:33:52;11.33;;;8.03;;
7929;SDS011;4010;42.698;23.124;2023-09-19T09:36:32;10.47;;;7.93;;
7929;SDS011;4010;42.698;23.124;2023-09-19T09:39:01;8.60;;;7.80;;
7929;SDS011;4010;42.698;23.124;2023-09-19T09:41:42;9.00;;;7.50;;
7929;SDS011;4010;42.698;23.124;2023-09-19T09:44:12;9.20;;;8.30;;
7929;SDS011;4010;42.698;23.124;2023-09-19T09:46:42;11.87;;;7.93;;
7929;SDS011;4010;42.698;23.124;2023-09-19T09:49:46;11.23;;;7.90;;
7929;SDS011;4010;42.698;23.124;2023-09-19T09:52:19;10.03;;;7.70;;
7929;SDS011;4010;42.698;23.124;2023-09-19T09:54:58;10.53;;;7.23;;
7929;SDS011;4010;42.698;23.124;2023-09-19T09:57:27;9.07;;;7.63;;
7929;SDS011;4010;42.698;23.124;2023-09-19T09:59:56;10.37;;;7.30;;
7929;SDS011;4010;42.698;23.124;2023-09-19T10:02:25;15.90;;;8.10;;
7929;SDS011;4010;42.698;23.124;2023-09-19T10:04:57;9.40;;;7.83;;
7929;SDS011;4010;42.698;23.124;2023-09-19T10:07:34;8.37;;;7.33;;
7929;SDS011;4010;42.698;23.124;2023-09-19T10:10:03;8.93;;;7.90;;
7929;SDS011;4010;42.698;23.124;2023-09-19T10:12:41;9.63;;;7.90;;
7929;SDS011;4010;42.698;23.124;2023-09-19T10:15:10;11.50;;;7.70;;
7929;SDS011;4010;42.698;23.124;2023-09-19T10:17:42;10.37;;;7.70;;
7929;SDS011;4010;42.698;23.124;2023-09-19T10:20:12;11.20;;;7.90;;
7929;SDS011;4010;42.698;23.124;2023-09-19T10:22:58;14.70;;;7.97;;
7929;SDS011;4010;42.698;23.124;2023-09-19T10:25:26;9.90;;;7.47;;
7929;SDS011;4010;42.698;23.124;2023-09-19T10:27:57;10.07;;;8.03;;
7929;SDS011;4010;42.698;23.124;2023-09-19T10:30:27;12.13;;;8.03;;
7929;SDS011;4010;42.698;23.124;2023-09-19T10:32:58;10.90;;;7.20;;
7929;SDS011;4010;42.698;23.124;2023-09-19T10:35:27;11.80;;;7.47;;
7929;SDS011;4010;42.698;23.124;2023-09-19T10:37:54;8.30;;;7.57;;
7929;SDS011;4010;42.698;23.124;2023-09-19T10:40:24;8.77;;;7.60;;
7929;SDS011;4010;42.698;23.124;2023-09-19T10:42:56;13.20;;;7.93;;
7929;SDS011;4010;42.698;23.124;2023-09-19T10:45:26;10.43;;;7.60;;
7929;SDS011;4010;42.698;23.124;2023-09-19T10:47:56;11.50;;;6.93;;
7929;SDS011;4010;42.698;23.124;2023-09-19T10:50:23;8.87;;;7.07;;
7929;SDS011;4010;42.698;23.124;2023-09-19T10:52:51;11.33;;;6.97;;
7929;SDS011;4010;42.698;23.124;2023-09-19T10:55:25;14.60;;;7.37;;
7929;SDS011;4010;42.698;23.124;2023-09-19T10:57:56;9.37;;;7.40;;
7929;SDS011;4010;42.698;23.124;2023-09-19T11:00:25;7.70;;;6.90;;
7929;SDS011;4010;42.698;23.124;2023-09-19T11:06:00;10.57;;;7.43;;
7929;SDS011;4010;42.698;23.124;2023-09-19T11:08:57;9.77;;;7.00;;
7929;SDS011;4010;42.698;23.124;2023-09-19T11:11:42;9.70;;;6.97;;
7929;SDS011;4010;42.698;23.124;2023-09-19T11:14:15;9.33;;;7.10;;
7929;SDS011;4010;42.698;23.124;2023-09-19T11:20:16;7.20;;;6.47;;
7929;SDS011;4010;42.698;23.124;2023-09-19T11:25:51;8.07;;;7.03;;
7929;SDS011;4010;42.698;23.124;2023-09-19T11:40:44;12.33;;;7.13;;
7929;SDS011;4010;42.698;23.124;2023-09-19T11:43:29;8.40;;;7.60;;
7929;SDS011;4010;42.698;23.124;2023-09-19T11:46:02;10.00;;;7.10;;
7929;SDS011;4010;42.698;23.124;2023-09-19T11:48:32;8.97;;;7.40;;
7929;SDS011;4010;42.698;23.124;2023-09-19T11:51:03;9.50;;;8.17;;
7929;SDS011;4010;42.698;23.124;2023-09-19T11:53:47;11.43;;;8.70;;
7929;SDS011;4010;42.698;23.124;2023-09-19T11:56:15;9.13;;;8.17;;
7929;SDS011;4010;42.698;23.124;2023-09-19T11:58:43;10.23;;;7.43;;
7929;SDS011;4010;42.698;23.124;2023-09-19T12:01:11;11.43;;;7.93;;
7929;SDS011;4010;42.698;23.124;2023-09-19T12:03:46;9.53;;;7.57;;
7929;SDS011;4010;42.698;23.124;2023-09-19T12:06:16;8.67;;;7.87;;
7929;SDS011;4010;42.698;23.124;2023-09-19T12:08:43;8.53;;;7.73;;
7929;SDS011;4010;42.698;23.124;2023-09-19T12:11:12;11.23;;;7.57;;
7929;SDS011;4010;42.698;23.124;2023-09-19T12:13:41;11.03;;;7.67;;
7929;SDS011;4010;42.698;23.124;2023-09-19T12:16:13;11.93;;;7.50;;
7929;SDS011;4010;42.698;23.124;2023-09-19T12:18:41;11.07;;;7.80;;
7929;SDS011;4010;42.698;23.124;2023-09-19T12:21:22;8.93;;;7.20;;
7929;SDS011;4010;42.698;23.124;2023-09-19T12:24:03;8.50;;;7.10;;
7929;SDS011;4010;42.698;23.124;2023-09-19T12:26:40;8.30;;;7.50;;
7929;SDS011;4010;42.698;23.124;2023-09-19T12:29:12;10.27;;;7.17;;
7929;SDS011;4010;42.698;23.124;2023-09-19T12:31:49;10.33;;;7.13;;
7929;SDS011;4010;42.698;23.124;2023-09-19T12:34:23;9.13;;;7.17;;
7929;SDS011;4010;42.698;23.124;2023-09-19T12:37:06;10.40;;;7.77;;
7929;SDS011;4010;42.698;23.124;2023-09-19T12:39:40;9.43;;;7.07;;
7929;SDS011;4010;42.698;23.124;2023-09-19T12:42:09;9.13;;;7.50;;
7929;SDS011;4010;42.698;23.124;2023-09-19T12:44:40;11.93;;;7.10;;
7929;SDS011;4010;42.698;23.124;2023-09-19T12:47:08;11.43;;;7.07;;
7929;SDS011;4010;42.698;23.124;2023-09-19T12:52:40;15.13;;;7.30;;
7929;SDS011;4010;42.698;23.124;2023-09-19T12:55:08;10.53;;;8.00;;
7929;SDS011;4010;42.698;23.124;2023-09-19T12:57:57;9.40;;;7.77;;
7929;SDS011;4010;42.698;23.124;2023-09-19T13:00:31;10.70;;;7.43;;
7929;SDS011;4010;42.698;23.124;2023-09-19T13:03:09;10.47;;;7.37;;
7929;SDS011;4010;42.698;23.124;2023-09-19T13:05:46;9.27;;;6.93;;
7929;SDS011;4010;42.698;23.124;2023-09-19T13:08:23;9.20;;;7.60;;
7929;SDS011;4010;42.698;23.124;2023-09-19T13:13:46;12.53;;;7.47;;
7929;SDS011;4010;42.698;23.124;2023-09-19T13:16:18;10.87;;;7.20;;
7929;SDS011;4010;42.698;23.124;2023-09-19T13:18:48;11.43;;;7.13;;
7929;SDS011;4010;42.698;23.124;2023-09-19T13:21:26;10.90;;;7.17;;
7929;SDS011;4010;42.698;23.124;2023-09-19T13:26:48;8.87;;;7.50;;
7929;SDS011;4010;42.698;23.124;2023-09-19T13:29:15;11.27;;;7.50;;
7929;SDS011;4010;42.698;23.124;2023-09-19T13:31:45;9.97;;;7.30;;
7929;SDS011;4010;42.698;23.124;2023-09-19T13:34:12;11.47;;;7.43;;
7929;SDS011;4010;42.698;23.124;2023-09-19T13:36:40;12.00;;;7.33;;
7929;SDS011;4010;42.698;23.124;2023-09-19T13:39:08;9.90;;;7.00;;
7929;SDS011;4010;42.698;23.124;2023-09-19T13:41:36;9.60;;;7.63;;
7929;SDS011;4010;42.698;23.124;2023-09-19T13:44:02;10.37;;;7.10;;
7929;SDS011;4010;42.698;23.124;2023-09-19T13:46:29;9.00;;;6.63;;
7929;SDS011;4010;42.698;23.124;2023-09-19T13:49:00;10.40;;;7.10;;
7929;SDS011;4010;42.698;23.124;2023-09-19T13:51:28;12.13;;;7.50;;
7929;SDS011;4010;42.698;23.124;2023-09-19T13:53:55;8.33;;;7.00;;
7929;SDS011;4010;42.698;23.124;2023-09-19T13:56:22;9.67;;;6.97;;
7929;SDS011;4010;42.698;23.124;2023-09-19T13:58:50;7.93;;;6.90;;
7929;SDS011;4010;42.698;23.124;2023-09-19T14:01:18;7.37;;;6.53;;
7929;SDS011;4010;42.698;23.124;2023-09-19T14:03:44;7.03;;;6.40;;
7929;SDS011;4010;42.698;23.124;2023-09-19T14:06:12;9.53;;;6.17;;
7929;SDS011;4010;42.698;23.124;2023-09-19T14:08:38;8.17;;;7.37;;
7929;SDS011;4010;42.698;23.124;2023-09-19T14:11:05;11.17;;;6.90;;
7929;SDS011;4010;42.698;23.124;2023-09-19T14:13:32;9.97;;;7.13;;
7929;SDS011;4010;42.698;23.124;2023-09-19T14:16:03;10.67;;;6.33;;
7929;SDS011;4010;42.698;23.124;2023-09-19T14:18:31;9.30;;;6.97;;
7929;SDS011;4010;42.698;23.124;2023-09-19T14:20:57;7.43;;;6.57;;
7929;SDS011;4010;42.698;23.124;2023-09-19T14:23:24;6.50;;;5.83;;
7929;SDS011;4010;42.698;23.124;2023-09-19T14:25:51;9.57;;;6.93;;
7929;SDS011;4010;42.698;23.124;2023-09-19T14:28:18;8.20;;;6.93;;
7929;SDS011;4010;42.698;23.124;2023-09-19T14:30:45;7.00;;;6.30;;
7929;SDS011;4010;42.698;23.124;2023-09-19T14:33:15;9.53;;;6.70;;
7929;SDS011;4010;42.698;23.124;2023-09-19T14:35:42;8.50;;;6.63;;
7929;SDS011;4010;42.698;23.124;2023-09-19T14:38:08;7.87;;;7.07;;
7929;SDS011;4010;42.698;23.124;2023-09-19T14:40:35;9.07;;;6.70;;
7929;SDS011;4010;42.698;23.124;2023-09-19T14:43:02;8.00;;;7.23;;
7929;SDS011;4010;42.698;23.124;2023-09-19T14:45:29;7.47;;;6.77;;
7929;SDS011;4010;42.698;23.124;2023-09-19T14:47:56;6.47;;;5.97;;
7929;SDS011;4010;42.698;23.124;2023-09-19T14:50:24;8.40;;;6.87;;
7929;SDS011;4010;42.698;23.124;2023-09-19T14:52:51;9.40;;;7.37;;
7929;SDS011;4010;42.698;23.124;2023-09-19T14:55:19;7.13;;;6.43;;
7929;SDS011;4010;42.698;23.124;2023-09-19T14:57:48;7.30;;;6.53;;
7929;SDS011;4010;42.698;23.124;2023-09-19T15:00:16;9.47;;;6.27;;
7929;SDS011;4010;42.698;23.124;2023-09-19T15:02:45;7.27;;;6.20;;
7929;SDS011;4010;42.698;23.124;2023-09-19T15:05:15;9.07;;;6.57;;
7929;SDS011;4010;42.698;23.124;2023-09-19T15:07:43;10.97;;;6.83;;
7929;SDS011;4010;42.698;23.124;2023-09-19T15:10:10;11.60;;;6.50;;
7929;SDS011;4010;42.698;23.124;2023-09-19T15:12:38;7.70;;;6.40;;
7929;SDS011;4010;42.698;23.124;2023-09-19T15:15:05;8.40;;;6.47;;
7929;SDS011;4010;42.698;23.124;2023-09-19T15:17:33;12.27;;;7.37;;
7929;SDS011;4010;42.698;23.124;2023-09-19T15:20:00;33.70;;;7.90;;
7929;SDS011;4010;42.698;23.124;2023-09-19T15:22:27;10.53;;;6.27;;
7929;SDS011;4010;42.698;23.124;2023-09-19T15:24:55;8.83;;;6.40;;
7929;SDS011;4010;42.698;23.124;2023-09-19T15:27:22;6.47;;;5.87;;
7929;SDS011;4010;42.698;23.124;2023-09-19T15:29:48;8.07;;;5.73;;
7929;SDS011;4010;42.698;23.124;2023-09-19T15:32:15;7.93;;;6.00;;
7929;SDS011;4010;42.698;23.124;2023-09-19T15:34:41;8.17;;;7.17;;
7929;SDS011;4010;42.698;23.124;2023-09-19T15:37:08;10.27;;;7.37;;